sensor_id;sensor_type;location;lat;lon;timestamp;pressure;altitude;pressure_sealevel;temperature;humidity
43691;BME280;29293;52.190;21.226;2023-12-20T00:01:27;99522.13;;;4.81;100.00
43691;BME280;29293;52.190;21.226;2023-12-20T00:16:34;99505.52;;;4.80;100.00
43691;BME280;29293;52.190;21.226;2023-12-20T00:31:40;99491.19;;;4.82;100.00
43691;BME280;29293;52.190;21.226;2023-12-20T00:46:47;99479.34;;;4.84;100.00
43691;BME280;29293;52.190;21.226;2023-12-20T01:01:54;99464.59;;;4.86;100.00
43691;BME280;29293;52.190;21.226;2023-12-20T01:17:02;99456.96;;;4.88;100.00
43691;BME280;29293;52.190;21.226;2023-12-20T01:32:09;99449.81;;;4.90;100.00
43691;BME280;29293;52.190;21.226;2023-12-20T01:47:16;99437.61;;;4.90;100.00
43691;BME280;29293;52.190;21.226;2023-12-20T02:02:23;99425.95;;;4.90;100.00
43691;BME280;29293;52.190;21.226;2023-12-20T02:17:32;99414.45;;;4.89;100.00
43691;BME280;29293;52.190;21.226;2023-12-20T02:32:38;99405.23;;;4.89;100.00
43691;BME280;29293;52.190;21.226;2023-12-20T02:47:45;99395.11;;;4.89;100.00
43691;BME280;29293;52.190;21.226;2023-12-20T03:02:52;99378.45;;;4.87;100.00
43691;BME280;29293;52.190;21.226;2023-12-20T03:17:59;99366.54;;;4.84;100.00
43691;BME280;29293;52.190;21.226;2023-12-20T03:33:06;99355.77;;;4.83;100.00
43691;BME280;29293;52.190;21.226;2023-12-20T03:48:13;99357.26;;;4.81;100.00
43691;BME280;29293;52.190;21.226;2023-12-20T04:03:20;99354.37;;;4.81;100.00
43691;BME280;29293;52.190;21.226;2023-12-20T04:18:27;99348.92;;;4.78;100.00
43691;BME280;29293;52.190;21.226;2023-12-20T04:33:34;99347.64;;;4.80;100.00
43691;BME280;29293;52.190;21.226;2023-12-20T04:48:41;99344.29;;;4.80;100.00
43691;BME280;29293;52.190;21.226;2023-12-20T05:03:47;99346.33;;;4.82;100.00
43691;BME280;29293;52.190;21.226;2023-12-20T05:18:54;99338.05;;;4.84;100.00
43691;BME280;29293;52.190;21.226;2023-12-20T05:34:01;99324.91;;;4.83;100.00
43691;BME280;29293;52.190;21.226;2023-12-20T05:49:08;99314.98;;;4.84;100.00
43691;BME280;29293;52.190;21.226;2023-12-20T06:04:16;99323.96;;;4.85;100.00
43691;BME280;29293;52.190;21.226;2023-12-20T06:19:24;99321.16;;;4.86;100.00
43691;BME280;29293;52.190;21.226;2023-12-20T06:34:31;99325.70;;;4.86;100.00
43691;BME280;29293;52.190;21.226;2023-12-20T06:49:38;99329.09;;;4.84;100.00
43691;BME280;29293;52.190;21.226;2023-12-20T07:04:45;99328.49;;;4.83;100.00
43691;BME280;29293;52.190;21.226;2023-12-20T07:19:52;99324.51;;;4.82;100.00
43691;BME280;29293;52.190;21.226;2023-12-20T07:34:58;99335.52;;;4.83;100.00
43691;BME280;29293;52.190;21.226;2023-12-20T07:50:08;99330.41;;;4.84;100.00
43691;BME280;29293;52.190;21.226;2023-12-20T08:05:15;99326.69;;;4.86;100.00
43691;BME280;29293;52.190;21.226;2023-12-20T08:20:22;99329.23;;;4.89;100.00
43691;BME280;29293;52.190;21.226;2023-12-20T08:35:30;99325.08;;;4.88;100.00
43691;BME280;29293;52.190;21.226;2023-12-20T08:50:37;99327.98;;;4.89;100.00
43691;BME280;29293;52.190;21.226;2023-12-20T09:05:44;99328.02;;;4.91;100.00
43691;BME280;29293;52.190;21.226;2023-12-20T09:20:53;99307.41;;;4.94;100.00
43691;BME280;29293;52.190;21.226;2023-12-20T09:36:00;99289.16;;;4.99;100.00
43691;BME280;29293;52.190;21.226;2023-12-20T09:51:07;99271.90;;;4.96;100.00
43691;BME280;29293;52.190;21.226;2023-12-20T10:06:16;99260.66;;;4.99;100.00
43691;BME280;29293;52.190;21.226;2023-12-20T10:21:23;99252.02;;;5.04;100.00
43691;BME280;29293;52.190;21.226;2023-12-20T10:36:32;99248.92;;;5.11;100.00
43691;BME280;29293;52.190;21.226;2023-12-20T10:51:41;99238.57;;;5.10;100.00
43691;BME280;29293;52.190;21.226;2023-12-20T11:06:51;99228.78;;;5.10;100.00
43691;BME280;29293;52.190;21.226;2023-12-20T11:21:59;99214.48;;;5.11;100.00
43691;BME280;29293;52.190;21.226;2023-12-20T11:37:06;99191.22;;;5.14;100.00
43691;BME280;29293;52.190;21.226;2023-12-20T11:52:14;99174.55;;;5.12;100.00
43691;BME280;29293;52.190;21.226;2023-12-20T12:07:21;99156.06;;;5.11;100.00
43691;BME280;29293;52.190;21.226;2023-12-20T12:22:28;99138.75;;;5.08;100.00
43691;BME280;29293;52.190;21.226;2023-12-20T12:37:38;99129.89;;;5.03;100.00
43691;BME280;29293;52.190;21.226;2023-12-20T12:52:46;99117.14;;;4.91;100.00
43691;BME280;29293;52.190;21.226;2023-12-20T13:07:52;99113.39;;;4.82;100.00
43691;BME280;29293;52.190;21.226;2023-12-20T13:22:59;99113.52;;;4.70;100.00
43691;BME280;29293;52.190;21.226;2023-12-20T13:38:06;99120.02;;;4.61;100.00
43691;BME280;29293;52.190;21.226;2023-12-20T13:53:14;99119.65;;;4.54;100.00
43691;BME280;29293;52.190;21.226;2023-12-20T14:08:21;99109.34;;;4.44;100.00
43691;BME280;29293;52.190;21.226;2023-12-20T14:23:29;99099.84;;;4.29;100.00
43691;BME280;29293;52.190;21.226;2023-12-20T14:38:38;99119.67;;;4.21;100.00
43691;BME280;29293;52.190;21.226;2023-12-20T14:53:45;99134.46;;;4.12;100.00
43691;BME280;29293;52.190;21.226;2023-12-20T15:08:52;99133.95;;;4.08;100.00
43691;BME280;29293;52.190;21.226;2023-12-20T15:24:00;99125.84;;;4.00;100.00
43691;BME280;29293;52.190;21.226;2023-12-20T15:39:19;99118.41;;;3.91;100.00
43691;BME280;29293;52.190;21.226;2023-12-20T15:54:26;99108.20;;;3.85;100.00
43691;BME280;29293;52.190;21.226;2023-12-20T16:09:33;99097.68;;;3.79;100.00
43691;BME280;29293;52.190;21.226;2023-12-20T16:24:40;99068.02;;;3.74;100.00
43691;BME280;29293;52.190;21.226;2023-12-20T16:39:48;99060.26;;;3.71;100.00
43691;BME280;29293;52.190;21.226;2023-12-20T16:54:55;99058.23;;;3.71;100.00
43691;BME280;29293;52.190;21.226;2023-12-20T17:10:02;99052.28;;;3.77;100.00
43691;BME280;29293;52.190;21.226;2023-12-20T17:25:09;99045.38;;;3.80;100.00
43691;BME280;29293;52.190;21.226;2023-12-20T17:40:17;99034.02;;;3.82;100.00
43691;BME280;29293;52.190;21.226;2023-12-20T18:07:34;99007.04;;;3.83;100.00
43691;BME280;29293;52.190;21.226;2023-12-20T18:22:41;98993.91;;;3.81;100.00
43691;BME280;29293;52.190;21.226;2023-12-20T18:37:48;98976.67;;;3.78;100.00
43691;BME280;29293;52.190;21.226;2023-12-20T18:52:55;98969.72;;;3.74;100.00
43691;BME280;29293;52.190;21.226;2023-12-20T19:08:02;98960.00;;;3.73;100.00
43691;BME280;29293;52.190;21.226;2023-12-20T19:23:09;98962.80;;;3.72;100.00
43691;BME280;29293;52.190;21.226;2023-12-20T19:38:17;98974.02;;;3.69;100.00
43691;BME280;29293;52.190;21.226;2023-12-20T19:53:24;98999.45;;;3.28;100.00
43691;BME280;29293;52.190;21.226;2023-12-20T20:08:30;99005.69;;;2.79;100.00
43691;BME280;29293;52.190;21.226;2023-12-20T20:23:37;98999.52;;;2.48;100.00
43691;BME280;29293;52.190;21.226;2023-12-20T20:38:52;99004.83;;;2.30;100.00
43691;BME280;29293;52.190;21.226;2023-12-20T20:54:30;99013.39;;;2.17;100.00
43691;BME280;29293;52.190;21.226;2023-12-20T21:09:45;99021.61;;;2.09;100.00
43691;BME280;29293;52.190;21.226;2023-12-20T21:45:29;99017.20;;;1.89;100.00
43691;BME280;29293;52.190;21.226;2023-12-20T22:00:32;99031.27;;;1.84;100.00
43691;BME280;29293;52.190;21.226;2023-12-20T22:15:36;99037.38;;;2.05;100.00
43691;BME280;29293;52.190;21.226;2023-12-20T22:30:40;99045.45;;;2.27;100.00
43691;BME280;29293;52.190;21.226;2023-12-20T22:45:44;99035.90;;;2.40;100.00
43691;BME280;29293;52.190;21.226;2023-12-20T23:00:48;99032.55;;;2.48;100.00
43691;BME280;29293;52.190;21.226;2023-12-20T23:15:52;99047.54;;;2.48;100.00
43691;BME280;29293;52.190;21.226;2023-12-20T23:30:56;99044.49;;;2.36;100.00
43691;BME280;29293;52.190;21.226;2023-12-20T23:45:59;99031.13;;;2.41;100.00
